Time;durP1;ratioP1;P1;durP2;ratioP2;P2;SDS_P1;SDS_P2;PMS_P1;PMS_P2;Temp;Humidity;BMP_temperature;BMP_pressure;BME280_temperature;BME280_humidity;BME280_pressure;Samples;Min_cycle;Max_cycle;Signal;HPM_P1;HPM_P2
2021/04/18 00:00:17;;;;;;;69.47;36.20;;;;;;;2.80;82.51;96717.11;1750508;81;21101;-75
2021/04/18 00:02:45;;;;;;;65.80;36.73;;;;;;;2.81;82.48;96711.03;1764664;81;21325;-78
2021/04/18 00:05:12;;;;;;;59.48;36.13;;;;;;;2.82;82.43;96710.09;1750247;81;21125;-78
2021/04/18 00:07:38;;;;;;;62.90;37.03;;;;;;;2.86;82.44;96708.09;1751989;81;21072;-78
2021/04/18 00:10:06;;;;;;;58.35;37.45;;;;;;;2.90;82.54;96706.89;1747922;81;21408;-78
2021/04/18 00:12:32;;;;;;;59.63;36.40;;;;;;;2.92;82.51;96713.98;1749829;81;21324;-78
2021/04/18 00:14:58;;;;;;;59.10;34.53;;;;;;;2.92;82.46;96716.55;1755186;81;21107;-78
2021/04/18 00:17:24;;;;;;;60.08;35.10;;;;;;;2.88;82.43;96710.87;1715535;81;21138;-78
2021/04/18 00:19:50;;;;;;;65.42;36.03;;;;;;;2.85;82.39;96705.17;1805152;78;21087;-78
2021/04/18 00:22:16;;;;;;;65.22;36.42;;;;;;;2.85;82.37;96707.27;1803321;78;21313;-78
2021/04/18 00:24:42;;;;;;;63.92;36.95;;;;;;;2.86;82.35;96706.33;1804500;78;21088;-76
2021/04/18 00:27:08;;;;;;;61.90;37.95;;;;;;;2.89;82.38;96705.27;1798772;78;21072;-77
2021/04/18 00:29:34;;;;;;;61.33;35.68;;;;;;;2.88;82.35;96705.73;1803626;78;21089;-76
2021/04/18 00:32:00;;;;;;;63.65;37.42;;;;;;;2.88;82.40;96701.88;1805371;78;21114;-76
2021/04/18 00:34:26;;;;;;;67.62;37.33;;;;;;;2.87;82.52;96697.69;1796560;78;21080;-76
2021/04/18 00:36:53;;;;;;;64.10;36.70;;;;;;;2.87;82.53;96700.73;1800428;78;21435;-76
2021/04/18 00:39:19;;;;;;;60.35;35.10;;;;;;;2.87;82.47;96696.41;1806605;78;21058;-76
2021/04/18 00:41:46;;;;;;;59.80;34.25;;;;;;;2.88;82.43;96699.79;1803293;78;21078;-75
2021/04/18 00:44:12;;;;;;;56.65;32.93;;;;;;;2.90;82.43;96700.00;1735437;80;21118;-76
2021/04/18 00:46:38;;;;;;;60.15;35.05;;;;;;;2.91;82.50;96701.63;1728329;81;21092;-76
2021/04/18 00:49:05;;;;;;;55.35;33.33;;;;;;;2.92;82.53;96700.69;1749853;80;21567;-75
2021/04/18 00:51:31;;;;;;;58.60;34.98;;;;;;;2.90;82.51;96701.75;1774278;79;21297;-76
2021/04/18 00:53:57;;;;;;;60.80;35.08;;;;;;;2.86;82.55;96693.50;1755199;79;21102;-76
2021/04/18 00:56:23;;;;;;;51.53;31.70;;;;;;;2.86;82.56;96699.10;1777450;79;21467;-76
2021/04/18 00:58:49;;;;;;;51.65;32.78;;;;;;;2.86;82.50;96696.54;1777656;79;21121;-76
2021/04/18 01:01:15;;;;;;;54.13;31.62;;;;;;;2.88;82.49;96698.50;1692528;81;21308;-76
2021/04/18 01:03:41;;;;;;;50.73;31.00;;;;;;;2.88;82.53;96700.59;1781167;79;21093;-76
2021/04/18 01:06:07;;;;;;;53.75;31.70;;;;;;;2.91;82.56;96695.68;1742975;81;21134;-76
2021/04/18 01:08:33;;;;;;;50.00;30.85;;;;;;;2.91;82.59;96692.64;1794710;78;21088;-76
2021/04/18 01:10:59;;;;;;;52.00;30.92;;;;;;;2.90;82.55;96691.02;1793354;78;21077;-76
2021/04/18 01:13:25;;;;;;;46.35;30.15;;;;;;;2.86;82.58;96690.94;1798433;78;21254;-75
2021/04/18 01:15:51;;;;;;;51.88;30.00;;;;;;;2.85;82.54;96684.17;1802239;78;21110;-75
2021/04/18 01:18:17;;;;;;;48.52;29.45;;;;;;;2.87;82.52;96684.05;1806245;78;21118;-75
2021/04/18 01:20:43;;;;;;;45.48;26.27;;;;;;;2.90;82.55;96682.03;1802657;78;21085;-75
2021/04/18 01:23:09;;;;;;;40.33;25.77;;;;;;;2.94;82.51;96677.02;1807927;78;21113;-75
2021/04/18 01:25:42;;;;;;;43.08;26.02;;;;;;;2.94;82.48;96676.20;1795023;78;21065;-75
2021/04/18 01:28:08;;;;;;;41.18;25.82;;;;;;;2.91;82.44;96673.39;1803390;78;21201;-75
2021/04/18 01:30:35;;;;;;;42.33;26.17;;;;;;;2.89;82.48;96675.75;1805099;78;21092;-78
2021/04/18 01:33:04;;;;;;;37.90;25.48;;;;;;;2.87;82.54;96669.93;1794098;78;21223;-78
2021/04/18 01:35:30;;;;;;;38.58;24.20;;;;;;;2.86;82.55;96671.69;1809923;78;21304;-78
2021/04/18 01:37:57;;;;;;;38.28;23.73;;;;;;;2.88;82.50;96672.37;1801129;78;21076;-78
2021/04/18 01:40:24;;;;;;;38.95;25.02;;;;;;;2.90;82.46;96671.77;1798837;78;21105;-78
2021/04/18 01:42:50;;;;;;;34.60;21.27;;;;;;;2.91;82.48;96675.14;1801492;78;21090;-78
2021/04/18 01:45:17;;;;;;;34.50;21.37;;;;;;;2.89;82.48;96675.27;1806723;78;21441;-78
2021/04/18 01:47:43;;;;;;;31.45;20.88;;;;;;;2.88;82.52;96676.69;1807163;78;21042;-78
2021/04/18 01:50:13;;;;;;;31.87;20.10;;;;;;;2.84;82.55;96674.85;1797190;78;21074;-75
2021/04/18 01:52:39;;;;;;;30.57;19.05;;;;;;;2.82;82.55;96675.92;1808317;78;21207;-75
2021/04/18 01:55:09;;;;;;;31.62;19.67;;;;;;;2.82;82.61;96675.92;1800688;78;21416;-75
2021/04/18 01:57:35;;;;;;;31.77;20.15;;;;;;;2.83;82.64;96673.23;1800029;78;21109;-75
2021/04/18 02:00:03;;;;;;;31.02;21.10;;;;;;;2.85;82.64;96670.53;1761533;78;21088;-75
2021/04/18 02:02:28;;;;;;;32.88;21.23;;;;;;;2.85;82.60;96671.34;1792445;78;21090;-75
2021/04/18 02:04:54;;;;;;;35.52;21.55;;;;;;;2.86;82.65;96667.84;1813185;78;21053;-75
2021/04/18 02:07:20;;;;;;;30.77;20.20;;;;;;;2.83;82.63;96668.09;1797978;78;21234;-77
2021/04/18 02:09:46;;;;;;;31.02;18.75;;;;;;;2.86;82.78;96669.12;1803813;78;21390;-77
2021/04/18 02:12:13;;;;;;;32.60;21.00;;;;;;;2.85;82.76;96664.92;1803945;78;21196;-77
2021/04/18 02:14:39;;;;;;;27.85;17.32;;;;;;;2.83;82.75;96669.38;1800237;78;21272;-77
2021/04/18 02:17:05;;;;;;;32.35;18.37;;;;;;;2.81;82.67;96667.88;1795875;78;21306;-77
2021/04/18 02:19:32;;;;;;;32.15;18.27;;;;;;;2.82;82.65;96666.94;1795617;78;21428;-78
2021/04/18 02:21:58;;;;;;;34.78;19.30;;;;;;;2.83;82.61;96663.43;1805870;78;21224;-78
2021/04/18 02:24:24;;;;;;;32.90;18.90;;;;;;;2.84;82.62;96665.05;1795442;78;21232;-78
2021/04/18 02:26:50;;;;;;;30.70;19.60;;;;;;;2.86;82.66;96661.89;1794611;78;21204;-78
2021/04/18 02:29:16;;;;;;;33.33;18.70;;;;;;;2.85;82.68;96667.49;1803439;78;21089;-76
2021/04/18 02:31:42;;;;;;;32.63;19.90;;;;;;;2.84;82.72;96663.77;1800959;78;21113;-76
2021/04/18 02:34:09;;;;;;;35.33;19.98;;;;;;;2.80;82.75;96660.66;1810562;78;21271;-76
2021/04/18 02:36:35;;;;;;;34.80;20.05;;;;;;;2.80;82.72;96663.69;1809330;78;21104;-75
2021/04/18 02:39:00;;;;;;;34.08;19.48;;;;;;;2.78;82.68;96659.97;1802957;78;21065;-76
2021/04/18 02:41:26;;;;;;;33.45;20.15;;;;;;;2.82;82.75;96660.52;1800219;78;21642;-76
2021/04/18 02:43:53;;;;;;;34.38;19.85;;;;;;;2.84;82.72;96659.45;1800020;78;21082;-76
2021/04/18 02:46:19;;;;;;;33.50;20.35;;;;;;;2.86;82.72;96655.00;1763155;78;21227;-76
2021/04/18 02:48:45;;;;;;;37.65;19.60;;;;;;;2.85;82.78;96655.13;1801709;78;21541;-76
2021/04/18 02:51:11;;;;;;;30.82;19.73;;;;;;;2.84;82.77;96650.94;1804105;78;21085;-76
2021/04/18 02:53:36;;;;;;;31.20;19.60;;;;;;;2.82;82.87;96650.26;1818776;78;21392;-76
2021/04/18 02:56:03;;;;;;;38.70;22.32;;;;;;;2.82;82.82;96650.26;1766369;78;21058;-76
2021/04/18 02:58:29;;;;;;;35.73;19.80;;;;;;;2.79;82.77;96635.13;1799755;78;21058;-76
2021/04/18 03:00:55;;;;;;;34.73;19.15;;;;;;;2.82;82.76;96643.84;1804609;78;21077;-76
2021/04/18 03:03:21;;;;;;;31.65;21.23;;;;;;;2.81;82.83;96640.47;1798170;78;21076;-76
2021/04/18 03:05:47;;;;;;;33.53;20.48;;;;;;;2.82;82.87;96641.28;1800726;78;21074;-76
2021/04/18 03:08:13;;;;;;;35.35;21.65;;;;;;;2.79;82.90;96629.52;1795289;78;21208;-76
2021/04/18 03:10:39;;;;;;;34.27;20.70;;;;;;;2.78;82.93;96638.63;1795914;78;21102;-76
2021/04/18 03:13:05;;;;;;;31.17;19.37;;;;;;;2.76;82.98;96629.75;1810250;78;21062;-75
2021/04/18 03:15:31;;;;;;;31.90;18.92;;;;;;;2.77;82.94;96630.13;1795668;78;21253;-79
2021/04/18 03:17:57;;;;;;;32.55;18.75;;;;;;;2.80;82.84;96631.61;1802085;78;21325;-78
2021/04/18 03:20:23;;;;;;;30.37;18.23;;;;;;;2.82;82.89;96627.16;1783147;79;21127;-78
2021/04/18 03:22:49;;;;;;;35.15;19.80;;;;;;;2.85;82.94;96626.43;1777242;79;21094;-78
2021/04/18 03:25:15;;;;;;;32.55;18.65;;;;;;;2.87;82.91;96626.30;1783997;79;21105;-78
2021/04/18 03:27:41;;;;;;;30.43;19.25;;;;;;;2.86;82.86;96620.83;1788677;79;21104;-78
2021/04/18 03:30:08;;;;;;;32.95;19.90;;;;;;;2.85;82.85;96625.62;1750453;81;21275;-78
2021/04/18 03:32:34;;;;;;;31.15;17.57;;;;;;;2.82;82.83;96628.45;1731254;81;21392;-76
2021/04/18 03:35:01;;;;;;;35.15;20.05;;;;;;;2.80;82.80;96627.30;1721309;82;21318;-77
2021/04/18 03:37:27;;;;;;;32.25;18.57;;;;;;;2.80;82.77;96626.48;1736481;81;21120;-77
2021/04/18 03:39:53;;;;;;;29.12;17.92;;;;;;;2.80;82.78;96626.01;1736837;81;21319;-77
2021/04/18 03:42:19;;;;;;;29.60;19.25;;;;;;;2.81;82.81;96626.35;1727157;82;21111;-77
2021/04/18 03:44:45;;;;;;;31.77;18.67;;;;;;;2.81;82.90;96621.22;1709505;81;21229;-77
2021/04/18 03:47:11;;;;;;;36.15;20.52;;;;;;;2.82;82.91;96620.75;1715120;82;21116;-77
2021/04/18 03:49:37;;;;;;;31.65;19.30;;;;;;;2.80;82.90;96620.88;1735673;81;21125;-77
2021/04/18 03:52:04;;;;;;;34.55;19.52;;;;;;;2.78;82.92;96616.34;1721485;82;21112;-77
2021/04/18 03:54:30;;;;;;;33.55;19.42;;;;;;;2.77;82.93;96612.62;1745306;81;21246;-77
2021/04/18 03:56:55;;;;;;;29.65;18.23;;;;;;;2.80;82.99;96618.31;1720075;82;21329;-77
2021/04/18 03:59:21;;;;;;;25.10;16.25;;;;;;;2.84;82.93;96616.30;1725904;81;21454;-77
2021/04/18 04:01:47;;;;;;;24.30;15.28;;;;;;;2.88;82.91;96618.47;1730024;81;21122;-77
2021/04/18 04:04:14;;;;;;;25.85;14.78;;;;;;;2.89;82.90;96623.13;1726345;81;21370;-77
2021/04/18 04:06:40;;;;;;;24.30;14.80;;;;;;;2.89;82.88;96618.81;1732247;81;21119;-77
2021/04/18 04:09:08;;;;;;;25.82;15.15;;;;;;;2.90;82.92;96624.28;1732703;81;21102;-77
2021/04/18 04:11:35;;;;;;;24.02;15.45;;;;;;;2.90;82.93;96624.28;1732581;81;21101;-77
2021/04/18 04:14:01;;;;;;;24.98;15.03;;;;;;;2.91;82.87;96622.06;1721799;82;21108;-77
2021/04/18 04:16:27;;;;;;;23.27;13.90;;;;;;;2.92;82.78;96621.11;1720357;82;21111;-76
2021/04/18 04:18:53;;;;;;;24.15;14.80;;;;;;;2.95;82.82;96632.44;1725977;81;21110;-76
2021/04/18 04:21:20;;;;;;;22.87;15.00;;;;;;;2.99;82.82;96629.13;1802587;78;21286;-76
2021/04/18 04:23:47;;;;;;;24.02;14.60;;;;;;;3.01;82.86;96627.25;1795496;78;21068;-76
2021/04/18 04:26:13;;;;;;;24.02;15.75;;;;;;;2.99;82.79;96619.67;1794296;78;21068;-76
2021/04/18 04:28:39;;;;;;;22.13;14.10;;;;;;;2.97;82.81;96617.71;1794247;78;21069;-76
2021/04/18 04:31:05;;;;;;;26.62;14.85;;;;;;;2.94;82.78;96612.84;1803557;78;21069;-76
2021/04/18 04:33:36;;;;;;;23.02;14.10;;;;;;;2.96;82.78;96617.84;1810265;78;21095;-76
2021/04/18 04:36:03;;;;;;;21.12;14.05;;;;;;;2.97;82.73;96613.05;1804004;78;21086;-76
2021/04/18 04:38:29;;;;;;;23.20;14.78;;;;;;;3.01;82.70;96611.84;1800275;78;21208;-75
2021/04/18 04:40:56;;;;;;;22.48;15.23;;;;;;;3.03;82.70;96615.56;1796894;78;21244;-75
2021/04/18 04:43:21;;;;;;;22.62;14.50;;;;;;;3.04;82.74;96612.86;1805065;78;21077;-75
2021/04/18 04:45:48;;;;;;;22.13;14.13;;;;;;;3.06;82.79;96612.73;1799644;78;21098;-75
2021/04/18 04:48:14;;;;;;;22.35;14.25;;;;;;;3.06;82.76;96619.96;1799620;78;21258;-75
2021/04/18 04:50:40;;;;;;;20.45;12.85;;;;;;;3.05;82.75;96613.67;1811896;78;21325;-75
2021/04/18 04:53:06;;;;;;;19.32;12.78;;;;;;;3.07;82.69;96609.22;1809812;78;21041;-75
2021/04/18 04:55:32;;;;;;;19.92;12.93;;;;;;;3.09;82.63;96608.17;1812158;78;21926;-75
2021/04/18 04:57:58;;;;;;;18.73;12.73;;;;;;;3.16;82.77;96608.45;1798481;78;21105;-75
2021/04/18 05:00:24;;;;;;;17.80;12.23;;;;;;;3.25;82.87;96606.38;1800538;78;21270;-75
2021/04/18 05:02:57;;;;;;;19.60;13.60;;;;;;;3.34;82.92;96607.36;1800027;78;21090;-75
2021/04/18 05:05:24;;;;;;;19.40;13.43;;;;;;;3.41;82.79;96609.73;1796509;78;21114;-78
2021/04/18 05:07:49;;;;;;;20.90;14.43;;;;;;;3.43;82.60;96609.96;1794485;78;21065;-78
2021/04/18 05:10:15;;;;;;;20.77;13.25;;;;;;;3.43;82.52;96609.96;1799997;78;21224;-78
2021/04/18 05:12:41;;;;;;;16.15;12.80;;;;;;;3.47;82.43;96610.50;1804286;78;21109;-78
2021/04/18 05:15:09;;;;;;;16.62;12.05;;;;;;;3.50;82.27;96613.61;1814444;78;21093;-77
2021/04/18 05:17:35;;;;;;;15.83;11.75;;;;;;;3.51;82.15;96617.81;1805351;78;21309;-77
2021/04/18 05:20:02;;;;;;;15.85;10.72;;;;;;;3.51;82.14;96615.23;1802352;78;21086;-76
2021/04/18 05:22:28;;;;;;;17.37;11.25;;;;;;;3.50;82.15;96617.47;1814559;78;21078;-77
2021/04/18 05:24:54;;;;;;;17.52;12.70;;;;;;;3.48;82.20;96618.08;1816340;78;21086;-77
2021/04/18 05:27:20;;;;;;;13.55;10.00;;;;;;;3.41;82.42;96607.16;1806969;78;21204;-77
2021/04/18 05:29:46;;;;;;;16.17;10.78;;;;;;;3.50;82.24;96623.89;1811732;78;21082;-76
2021/04/18 05:32:13;;;;;;;16.80;10.30;;;;;;;3.51;82.17;96621.66;1803975;78;21618;-76
2021/04/18 05:34:39;;;;;;;16.32;11.20;;;;;;;3.50;82.05;96620.03;1819094;78;21074;-75
2021/04/18 05:37:05;;;;;;;15.23;10.48;;;;;;;3.50;81.97;96622.61;1800005;78;21074;-76
2021/04/18 05:39:31;;;;;;;15.70;10.90;;;;;;;3.50;82.05;96626.94;1804614;78;21232;-77
2021/04/18 05:41:57;;;;;;;13.58;10.03;;;;;;;3.49;82.04;96626.13;1814693;78;21089;-78
2021/04/18 05:44:23;;;;;;;14.07;9.55;;;;;;;3.46;82.14;96627.67;1801296;78;21049;-77
2021/04/18 05:46:49;;;;;;;15.00;10.32;;;;;;;3.43;82.13;96622.80;1809781;78;21071;-77
2021/04/18 05:49:15;;;;;;;12.95;9.18;;;;;;;3.42;82.23;96630.64;1803090;79;21213;-75
2021/04/18 05:51:41;;;;;;;15.55;10.58;;;;;;;3.47;82.40;96632.34;1738512;80;21059;-75
2021/04/18 05:54:07;;;;;;;14.78;10.48;;;;;;;3.49;82.22;96628.69;1753385;81;21313;-78
2021/04/18 05:56:35;;;;;;;13.78;10.78;;;;;;;3.51;82.26;96633.22;1743498;80;21238;-75
2021/04/18 05:59:01;;;;;;;16.23;11.22;;;;;;;3.52;82.42;96638.70;1800571;78;21118;-76
2021/04/18 06:01:27;;;;;;;22.10;15.50;;;;;;;3.54;82.38;96639.84;1798844;78;21218;-76
2021/04/18 06:03:56;;;;;;;24.98;15.20;;;;;;;3.50;82.48;96639.30;1815116;78;21067;-78
2021/04/18 06:06:23;;;;;;;17.62;12.15;;;;;;;3.49;82.63;96642.82;1811067;79;21286;-76
2021/04/18 06:08:49;;;;;;;16.37;10.70;;;;;;;3.54;82.63;96643.70;1812891;78;21117;-75
2021/04/18 06:11:15;;;;;;;16.57;11.80;;;;;;;3.57;82.43;96639.11;1814424;78;21075;-75
2021/04/18 06:13:44;;;;;;;20.62;14.03;;;;;;;3.64;82.53;96639.87;1816477;78;21054;-77
2021/04/18 06:16:10;;;;;;;19.75;13.83;;;;;;;3.69;82.41;96635.15;1805312;78;21105;-78
2021/04/18 06:18:36;;;;;;;21.80;14.28;;;;;;;3.72;82.35;96642.11;1815406;78;21320;-77
2021/04/18 06:21:04;;;;;;;23.38;16.12;;;;;;;3.73;82.31;96637.31;1819460;78;21285;-74
2021/04/18 06:23:30;;;;;;;23.45;15.10;;;;;;;3.76;82.32;96632.41;1816395;78;21105;-77
2021/04/18 06:25:56;;;;;;;21.50;14.38;;;;;;;3.77;82.11;96643.02;1819030;78;21101;-78
2021/04/18 06:28:22;;;;;;;25.82;16.95;;;;;;;3.80;82.25;96638.42;1813061;78;21308;-74
2021/04/18 06:30:48;;;;;;;32.70;21.10;;;;;;;3.87;82.33;96638.22;1820611;78;21098;-76
2021/04/18 06:33:14;;;;;;;30.72;21.68;;;;;;;3.96;82.25;96648.66;1821186;78;21088;-76
2021/04/18 06:35:41;;;;;;;38.50;23.22;;;;;;;4.02;82.15;96642.49;1768841;78;21138;-76
2021/04/18 06:38:08;;;;;;;37.05;23.92;;;;;;;4.06;82.43;96642.55;1818618;78;21094;-74
2021/04/18 06:40:34;;;;;;;32.88;21.68;;;;;;;4.06;82.16;96641.27;1822753;78;21204;-75
2021/04/18 06:43:11;;;;;;;34.13;22.67;;;;;;;4.12;82.29;96645.08;1752681;80;21078;-77
2021/04/18 06:45:37;;;;;;;32.48;22.87;;;;;;;4.20;82.20;96648.58;1782393;80;21095;-76
2021/04/18 06:48:04;;;;;;;35.13;22.22;;;;;;;4.33;82.12;96648.79;1780494;80;21278;-77
2021/04/18 06:50:30;;;;;;;36.98;24.47;;;;;;;4.44;81.86;96643.03;1782718;80;21435;-78
2021/04/18 06:52:56;;;;;;;34.63;23.22;;;;;;;4.55;81.74;96644.62;1781729;80;22006;-75
2021/04/18 06:55:25;;;;;;;31.27;18.80;;;;;;;4.73;81.90;96642.19;1768610;81;21102;-77
2021/04/18 06:57:51;;;;;;;27.95;19.92;;;;;;;5.08;82.14;96638.96;1757706;81;21111;-77
2021/04/18 07:00:17;;;;;;;25.82;18.27;;;;;;;5.49;81.89;96643.31;1761363;81;21073;-77
2021/04/18 07:02:46;;;;;;;30.75;21.23;;;;;;;5.85;81.33;96638.55;1758170;81;21212;-79
2021/04/18 07:07:49;;;;;;;34.53;22.93;;;;;;;6.08;80.50;96647.20;1801107;78;21108;-77
2021/04/18 07:10:27;;;;;;;36.40;24.82;;;;;;;5.96;80.10;96647.88;1773127;80;21162;-75
2021/04/18 07:12:53;;;;;;;31.93;19.62;;;;;;;5.78;80.03;96649.60;1777431;80;21122;-78
2021/04/18 07:15:35;;;;;;;30.65;20.65;;;;;;;5.64;80.08;96649.61;1782495;79;21102;-76
2021/04/18 07:18:01;;;;;;;30.57;19.48;;;;;;;5.47;80.15;96647.80;1767717;80;21166;-77
2021/04/18 07:20:27;;;;;;;27.93;19.27;;;;;;;5.40;80.24;96656.12;1779181;80;21098;-76
2021/04/18 07:22:53;;;;;;;32.05;19.82;;;;;;;5.41;80.40;96659.51;1767716;80;21095;-78
2021/04/18 07:25:19;;;;;;;30.43;18.90;;;;;;;5.41;80.50;96660.31;1778811;80;21125;-76
2021/04/18 07:27:52;;;;;;;27.90;18.23;;;;;;;5.43;80.50;96659.69;1708271;80;21109;-83
2021/04/18 07:30:23;;;;;;;30.32;20.25;;;;;;;5.41;80.48;96660.80;1779811;80;21109;-79
2021/04/18 07:33:02;;;;;;;30.40;19.98;;;;;;;5.45;80.66;96659.55;1760047;80;21313;-76
2021/04/18 07:35:40;;;;;;;28.75;19.35;;;;;;;5.46;80.56;96664.22;1750928;80;21133;-78
2021/04/18 07:38:27;;;;;;;28.27;19.95;;;;;;;5.60;80.35;96662.46;1763727;80;21086;-77
2021/04/18 07:41:07;;;;;;;29.30;19.77;;;;;;;5.84;80.18;96655.45;1765826;80;21078;-80
2021/04/18 07:43:33;;;;;;;27.73;20.65;;;;;;;5.97;79.49;96652.89;1757568;80;21097;-78
2021/04/18 07:46:00;;;;;;;29.12;21.27;;;;;;;5.98;79.77;96651.94;1752579;80;21311;-76
2021/04/18 07:48:27;;;;;;;29.25;21.62;;;;;;;6.00;79.72;96654.36;1753642;80;21144;-81
2021/04/18 07:50:54;;;;;;;31.35;20.65;;;;;;;6.12;80.26;96653.20;1765738;80;21084;-77
2021/04/18 07:53:21;;;;;;;28.77;21.27;;;;;;;6.15;79.46;96654.19;1755379;80;21326;-78
2021/04/18 07:55:47;;;;;;;28.47;21.15;;;;;;;6.11;79.31;96654.16;1737753;80;21292;-80
2021/04/18 07:58:16;;;;;;;27.32;22.22;;;;;;;6.23;79.84;96650.41;1751098;80;21202;-76
2021/04/18 08:00:42;;;;;;;31.40;23.35;;;;;;;6.43;79.81;96652.34;1750963;80;21089;-79
2021/04/18 08:03:09;;;;;;;33.60;24.35;;;;;;;6.58;79.19;96646.17;1744656;80;21104;-79
2021/04/18 08:05:37;;;;;;;31.75;23.45;;;;;;;6.77;79.24;96649.04;1690624;80;21288;-79
2021/04/18 08:08:08;;;;;;;34.03;23.85;;;;;;;6.88;78.95;96643.63;1708801;82;21316;-79
2021/04/18 08:10:41;;;;;;;34.33;24.02;;;;;;;6.97;79.08;96646.58;1712113;82;21185;-77
2021/04/18 08:13:16;;;;;;;33.67;21.62;;;;;;;7.04;78.58;96644.21;1702303;82;21181;-80
2021/04/18 08:16:04;;;;;;;30.65;22.87;;;;;;;7.00;78.00;96638.55;1713105;82;21134;-79
2021/04/18 08:18:46;;;;;;;29.63;22.15;;;;;;;7.06;78.30;96639.22;1711603;82;21070;-78
2021/04/18 08:21:39;;;;;;;30.37;22.57;;;;;;;7.16;77.84;96642.51;1708308;82;21126;-80
2021/04/18 08:24:21;;;;;;;30.68;22.73;;;;;;;7.27;78.06;96644.48;1721253;82;21149;-80
2021/04/18 08:27:01;;;;;;;29.57;22.55;;;;;;;7.40;78.44;96640.50;1726364;82;21119;-79
2021/04/18 08:29:28;;;;;;;28.20;21.33;;;;;;;7.55;77.37;96644.61;1742407;82;21248;-79
2021/04/18 08:32:00;;;;;;;32.53;22.65;;;;;;;7.41;76.84;96643.90;1715996;82;21308;-79
2021/04/18 08:34:33;;;;;;;29.00;20.82;;;;;;;7.33;76.85;96636.94;1722012;82;21316;-79
2021/04/18 08:37:01;;;;;;;27.27;20.32;;;;;;;7.33;77.00;96642.10;1717523;82;21288;-78
2021/04/18 08:39:38;;;;;;;28.02;20.65;;;;;;;7.47;76.98;96641.97;1739152;82;21131;-77
2021/04/18 08:42:05;;;;;;;26.68;19.42;;;;;;;7.64;77.17;96636.38;1723367;82;21334;-77
2021/04/18 08:44:43;;;;;;;25.40;19.20;;;;;;;7.88;76.84;96636.94;1726464;82;21093;-77
2021/04/18 08:47:14;;;;;;;33.13;23.40;;;;;;;8.05;76.43;96637.30;1714160;82;21257;-79
2021/04/18 08:49:51;;;;;;;28.97;21.27;;;;;;;7.99;75.03;96637.95;1730476;82;21177;-79
2021/04/18 08:52:26;;;;;;;30.30;23.75;;;;;;;7.88;75.46;96636.45;1721921;82;21257;-79
2021/04/18 08:54:58;;;;;;;31.00;23.90;;;;;;;8.03;75.50;96629.70;1731696;82;21118;-79
2021/04/18 08:57:26;;;;;;;29.57;23.75;;;;;;;8.11;75.59;96640.53;1721972;82;21110;-79
2021/04/18 09:00:00;;;;;;;24.72;19.02;;;;;;;8.13;74.49;96638.59;1702664;82;21102;-77
2021/04/18 09:02:28;;;;;;;23.60;19.02;;;;;;;8.06;74.05;96629.38;1714514;82;21129;-77
2021/04/18 09:04:58;;;;;;;24.23;17.98;;;;;;;7.92;74.01;96636.94;1706533;82;21160;-77
2021/04/18 09:07:29;;;;;;;29.07;23.73;;;;;;;8.00;74.03;96639.08;1735806;80;21240;-76
2021/04/18 09:10:00;;;;;;;25.25;18.77;;;;;;;8.06;74.54;96635.84;1728287;80;21920;-78
2021/04/18 09:12:26;;;;;;;24.98;18.80;;;;;;;8.18;74.30;96632.47;1732047;80;21329;-78
2021/04/18 09:14:53;;;;;;;18.98;14.30;;;;;;;8.28;74.10;96631.81;1758939;80;21099;-77
2021/04/18 09:17:28;;;;;;;14.23;12.00;;;;;;;8.38;73.64;96637.68;1747557;80;21215;-78
2021/04/18 09:19:59;;;;;;;16.60;13.53;;;;;;;8.31;72.00;96634.59;1750703;80;21081;-78
2021/04/18 09:22:30;;;;;;;20.82;15.55;;;;;;;8.21;72.75;96640.39;1749015;80;21073;-80
2021/04/18 09:25:14;;;;;;;15.95;12.37;;;;;;;8.22;72.51;96635.05;1762002;80;21081;-80
2021/04/18 09:27:48;;;;;;;21.25;15.43;;;;;;;8.20;72.25;96635.70;1763590;80;21213;-80
2021/04/18 09:30:24;;;;;;;17.27;13.68;;;;;;;8.29;72.86;96633.42;1745388;80;21113;-82
2021/04/18 09:32:54;;;;;;;18.57;15.15;;;;;;;8.47;72.99;96627.34;1745858;81;21114;-79
2021/04/18 09:35:25;;;;;;;16.50;13.25;;;;;;;8.58;72.44;96625.69;1749866;80;21116;-79
2021/04/18 09:38:00;;;;;;;18.55;15.18;;;;;;;8.66;72.14;96625.22;1747813;80;21086;-79
2021/04/18 09:40:32;;;;;;;18.07;15.25;;;;;;;8.88;72.14;96628.09;1746274;80;21340;-79
2021/04/18 09:42:59;;;;;;;21.35;16.60;;;;;;;9.08;71.57;96622.86;1762501;81;21332;-79
2021/04/18 09:45:28;;;;;;;21.73;17.73;;;;;;;9.22;71.37;96629.14;1752743;80;21218;-80
2021/04/18 09:48:00;;;;;;;18.55;15.25;;;;;;;9.36;71.04;96629.74;1760725;80;21067;-79
2021/04/18 09:50:33;;;;;;;16.48;13.18;;;;;;;9.47;69.92;96624.20;1754397;80;21321;-77
2021/04/18 09:56:08;;;;;;;17.42;13.25;;;;;;;9.33;67.19;96628.78;1835128;77;22993;-80
2021/04/18 09:58:39;;;;;;;15.55;12.70;;;;;;;9.10;67.56;96630.46;1797996;78;21107;-79
2021/04/18 10:01:27;;;;;;;17.37;13.70;;;;;;;8.97;67.43;96625.81;1824915;77;21083;-80
2021/04/18 10:03:53;;;;;;;15.20;11.95;;;;;;;8.85;68.06;96625.84;1811908;77;21206;-80
2021/04/18 10:06:19;;;;;;;14.18;11.90;;;;;;;8.85;68.03;96629.23;1813576;77;21265;-78
2021/04/18 10:09:01;;;;;;;17.70;14.55;;;;;;;9.02;68.33;96627.42;1813648;77;21292;-78
2021/04/18 10:11:26;;;;;;;20.60;14.18;;;;;;;9.24;68.55;96629.78;1826188;77;21405;-77
2021/04/18 10:13:58;;;;;;;13.20;10.50;;;;;;;9.22;67.44;96631.24;1806853;77;21154;-77
2021/04/18 10:16:33;;;;;;;;;;;;;;;9.21;66.95;96636.59;1849721;77;21127;-77
2021/04/18 10:19:15;;;;;;;17.92;13.78;;;;;;;9.17;67.71;96627.55;1802720;77;20263;-77
2021/04/18 10:21:43;;;;;;;18.80;14.25;;;;;;;9.19;67.96;96629.48;1825220;77;21099;-77
2021/04/18 10:24:44;;;;;;;18.48;13.28;;;;;;;9.12;67.37;96628.05;1825788;77;21121;-77
2021/04/18 10:27:12;;;;;;;15.75;13.25;;;;;;;9.01;67.26;96629.69;1811198;77;21122;-78
2021/04/18 10:29:39;;;;;;;15.93;13.25;;;;;;;8.99;67.65;96631.64;1803512;78;21139;-78
2021/04/18 10:32:06;;;;;;;15.68;12.60;;;;;;;9.09;67.61;96632.25;1816001;78;21068;-78
2021/04/18 10:34:32;;;;;;;15.20;12.90;;;;;;;9.25;67.20;96629.61;1796718;78;21147;-78
2021/04/18 10:36:58;;;;;;;15.95;13.78;;;;;;;9.35;67.01;96624.73;1826019;77;21313;-78
2021/04/18 10:39:24;;;;;;;19.42;14.25;;;;;;;9.47;67.02;96629.88;1805809;77;21099;-77
2021/04/18 10:41:50;;;;;;;16.90;13.22;;;;;;;9.54;66.50;96626.42;1807505;78;21099;-78
2021/04/18 10:44:16;;;;;;;13.72;11.35;;;;;;;9.59;65.81;96624.13;1804030;77;21142;-78
2021/04/18 10:46:44;;;;;;;15.40;12.58;;;;;;;9.63;65.21;96629.80;1784794;79;21067;-78
2021/04/18 10:49:10;;;;;;;17.20;13.15;;;;;;;9.53;65.61;96631.30;1818954;78;21210;-78
2021/04/18 10:51:36;;;;;;;16.50;13.55;;;;;;;9.55;66.03;96629.33;1810983;78;21202;-78
2021/04/18 10:54:03;;;;;;;15.63;12.37;;;;;;;9.60;66.14;96617.98;1826899;78;21348;-78
2021/04/18 10:56:31;;;;;;;18.20;14.28;;;;;;;9.49;64.14;96626.13;1791426;77;21492;-77
2021/04/18 10:58:58;;;;;;;17.60;13.83;;;;;;;9.31;65.03;96624.27;1815897;78;21104;-77
2021/04/18 11:01:25;;;;;;;16.80;13.50;;;;;;;9.11;65.16;96626.89;1793581;77;21253;-77
2021/04/18 11:03:54;;;;;;;15.32;12.47;;;;;;;9.12;65.32;96632.42;1812075;77;21242;-77
2021/04/18 11:06:22;;;;;;;15.72;11.95;;;;;;;9.16;65.63;96623.34;1798788;78;21237;-78
2021/04/18 11:08:48;;;;;;;12.63;9.78;;;;;;;9.09;64.45;96627.55;1790066;77;21316;-80
2021/04/18 11:11:14;;;;;;;14.83;11.88;;;;;;;9.20;63.84;96622.02;1804779;77;21125;-80
2021/04/18 11:13:40;;;;;;;16.05;12.98;;;;;;;9.32;65.44;96629.28;1817256;78;21358;-80
2021/04/18 11:16:06;;;;;;;17.77;13.88;;;;;;;9.57;65.87;96622.19;1810666;77;21092;-77
2021/04/18 11:18:33;;;;;;;22.90;16.02;;;;;;;9.77;65.63;96621.30;1758177;80;21095;-78
2021/04/18 11:20:59;;;;;;;18.50;15.10;;;;;;;9.82;64.71;96609.91;1800401;78;21092;-80
2021/04/18 11:23:26;;;;;;;16.73;13.62;;;;;;;9.86;65.37;96611.17;1818245;78;21090;-80
2021/04/18 11:25:52;;;;;;;20.48;15.32;;;;;;;9.86;63.32;96605.98;1816882;77;21302;-78
2021/04/18 11:28:17;;;;;;;20.50;15.58;;;;;;;9.78;64.68;96608.64;1794516;77;21146;-77
2021/04/18 11:30:43;;;;;;;19.85;15.80;;;;;;;9.83;65.18;96612.02;1818353;77;21309;-78
2021/04/18 11:33:10;;;;;;;22.17;16.65;;;;;;;9.95;65.25;96614.55;1806788;77;21104;-78
2021/04/18 11:35:37;;;;;;;20.60;15.05;;;;;;;10.15;64.81;96607.91;1799438;77;21092;-78